Time;durP1;ratioP1;P1;durP2;ratioP2;P2;SDS_P1;SDS_P2;PMS_P1;PMS_P2;Temp;Humidity;BMP_temperature;BMP_pressure;BME280_temperature;BME280_humidity;BME280_pressure;Samples;Min_cycle;Max_cycle;Signal;HPM_P1;HPM_P2
2021/08/13 00:01:42;;;;;;;9.73;5.97;;;;;;;20.30;67.42;101164.81;5059164;28;20228;-86
2021/08/13 00:04:09;;;;;;;7.73;6.20;;;;;;;20.29;67.38;101168.50;5058296;28;20216;-83
2021/08/13 00:06:40;;;;;;;9.07;6.20;;;;;;;20.29;67.70;101168.50;5050206;28;20285;-83
2021/08/13 00:09:06;;;;;;;9.10;6.57;;;;;;;20.31;67.67;101163.81;5052791;28;20233;-83
2021/08/13 00:11:33;;;;;;;8.57;6.43;;;;;;;20.35;67.69;101162.50;5060768;28;20287;-83
2021/08/13 00:13:59;;;;;;;6.77;6.07;;;;;;;20.37;67.64;101168.66;5053862;28;20210;-83
2021/08/13 00:16:27;;;;;;;7.30;6.20;;;;;;;20.39;67.62;101168.53;5053399;28;20249;-82
2021/08/13 00:18:54;;;;;;;8.60;6.50;;;;;;;20.40;67.62;101170.22;5056845;28;20201;-84
2021/08/13 00:21:20;;;;;;;6.70;5.57;;;;;;;20.39;67.84;101177.50;5049025;28;20295;-83
2021/08/13 00:23:47;;;;;;;8.27;6.43;;;;;;;20.38;67.66;101183.91;5052013;28;20272;-83
2021/08/13 00:26:13;;;;;;;7.37;5.87;;;;;;;20.38;67.80;101181.19;5055325;28;20204;-84
2021/08/13 00:28:40;;;;;;;7.70;6.80;;;;;;;20.38;67.55;101199.28;5054323;28;20237;-83
2021/08/13 00:31:06;;;;;;;7.80;6.43;;;;;;;20.35;67.42;101199.53;5051203;28;20218;-84
2021/08/13 00:33:34;;;;;;;7.00;6.30;;;;;;;20.34;67.49;101197.81;5048903;28;20629;-84
2021/08/13 00:36:01;;;;;;;7.93;6.27;;;;;;;20.33;67.60;101196.97;5051114;28;20225;-83
2021/08/13 00:38:27;;;;;;;7.73;6.63;;;;;;;20.32;67.58;101194.41;5050029;28;20219;-83
2021/08/13 00:40:54;;;;;;;7.83;7.00;;;;;;;20.28;67.32;101193.84;5048264;28;20296;-83
2021/08/13 00:43:20;;;;;;;8.47;7.63;;;;;;;20.22;67.57;101197.16;5051854;28;20204;-83
2021/08/13 00:45:53;;;;;;;12.00;7.20;;;;;;;20.17;67.62;101214.81;5052992;28;20235;-84
2021/08/13 00:48:19;;;;;;;8.80;6.63;;;;;;;20.13;68.09;101221.50;5050490;28;20291;-84
2021/08/13 00:50:51;;;;;;;6.93;6.23;;;;;;;20.11;68.03;101222.50;5054919;28;20221;-82
2021/08/13 00:53:18;;;;;;;7.27;6.27;;;;;;;20.09;68.25;101216.38;5049992;28;20637;-83
2021/08/13 00:55:49;;;;;;;6.77;6.07;;;;;;;20.06;68.11;101222.06;5057202;28;20596;-84
2021/08/13 00:58:22;;;;;;;6.80;5.87;;;;;;;20.00;68.11;101221.81;5055652;28;20215;-82
2021/08/13 01:00:51;;;;;;;7.03;6.33;;;;;;;19.92;68.12;101213.56;5052569;28;20576;-84
2021/08/13 01:03:18;;;;;;;10.07;6.37;;;;;;;19.83;68.46;101226.09;5058741;28;20203;-82
2021/08/13 01:05:45;;;;;;;6.90;6.20;;;;;;;19.75;68.62;101215.13;5059945;28;20292;-84
2021/08/13 01:08:13;;;;;;;7.10;6.40;;;;;;;19.67;68.84;101215.00;5056457;28;20209;-83
2021/08/13 01:10:47;;;;;;;6.97;6.33;;;;;;;19.63;69.19;101202.75;5056197;28;20318;-83
2021/08/13 01:13:25;;;;;;;7.77;7.07;;;;;;;19.61;69.37;101199.34;5058270;28;20203;-83
2021/08/13 01:15:55;;;;;;;7.30;6.47;;;;;;;19.60;69.45;101194.94;5055544;28;20233;-82
2021/08/13 01:18:30;;;;;;;8.87;6.57;;;;;;;19.59;69.63;101196.78;5052619;28;20201;-83
2021/08/13 01:21:25;;;;;;;7.73;6.37;;;;;;;19.56;69.52;101201.63;5057559;28;20219;-85
2021/08/13 01:23:56;;;;;;;9.30;6.07;;;;;;;19.52;69.79;101184.84;5039568;28;20665;-83
2021/08/13 01:26:26;;;;;;;7.83;7.03;;;;;;;19.51;70.04;101187.69;5061061;28;20203;-83
2021/08/13 01:29:07;;;;;;;12.10;6.90;;;;;;;19.50;69.66;101191.41;5061297;28;20212;-83
2021/08/13 01:31:44;;;;;;;7.17;6.47;;;;;;;19.50;69.93;101194.94;5063399;28;20201;-83
2021/08/13 01:34:13;;;;;;;7.10;6.20;;;;;;;19.50;69.99;101183.28;5062879;28;20750;-83
2021/08/13 01:36:42;;;;;;;8.07;7.17;;;;;;;19.48;69.94;101196.06;5060652;28;20280;-82
2021/08/13 01:39:09;;;;;;;10.63;7.03;;;;;;;19.45;69.72;101193.63;5056205;28;20230;-82
2021/08/13 01:41:38;;;;;;;8.20;6.10;;;;;;;19.39;69.62;101195.03;5069796;28;20207;-83
2021/08/13 01:44:08;;;;;;;7.17;6.30;;;;;;;19.35;69.90;101194.44;5070106;28;20291;-82
2021/08/13 01:46:35;;;;;;;6.47;5.77;;;;;;;19.34;69.81;101197.31;5061916;28;20211;-82
2021/08/13 01:49:02;;;;;;;7.70;5.97;;;;;;;19.31;69.70;101195.75;5061360;28;20238;-83
2021/08/13 01:51:31;;;;;;;12.60;6.87;;;;;;;19.28;69.56;101192.47;5061209;28;20203;-83
2021/08/13 01:53:58;;;;;;;11.17;6.23;;;;;;;19.25;69.55;101195.44;5059755;28;20544;-82
2021/08/13 01:56:26;;;;;;;6.83;6.17;;;;;;;19.23;69.54;101200.13;5068526;28;20213;-84
2021/08/13 01:58:53;;;;;;;9.20;6.73;;;;;;;19.23;69.62;101200.13;5067423;28;20203;-83
2021/08/13 02:01:20;;;;;;;7.40;6.60;;;;;;;19.21;69.41;101194.88;5059540;28;20267;-82
2021/08/13 02:03:48;;;;;;;8.13;7.13;;;;;;;19.23;69.75;101202.84;5055643;28;20201;-85
2021/08/13 02:06:16;;;;;;;7.77;6.67;;;;;;;19.20;69.74;101195.84;5065703;28;20654;-83
2021/08/13 02:08:44;;;;;;;8.80;6.97;;;;;;;19.17;69.92;101204.22;5064727;28;20691;-83
2021/08/13 02:11:14;;;;;;;10.90;7.17;;;;;;;19.14;70.14;101206.38;5055547;28;20670;-84
2021/08/13 02:13:41;;;;;;;11.70;7.27;;;;;;;19.12;70.20;101202.97;5052736;28;20214;-83
2021/08/13 02:16:11;;;;;;;8.23;7.10;;;;;;;19.09;70.30;101206.78;5057995;28;20235;-83
2021/08/13 02:18:43;;;;;;;11.00;7.97;;;;;;;19.07;70.42;101195.28;5051765;28;20200;-83
2021/08/13 02:21:14;;;;;;;8.37;6.90;;;;;;;18.99;69.99;101189.69;5054295;28;20199;-83
2021/08/13 02:23:40;;;;;;;8.30;6.70;;;;;;;18.82;69.84;101195.75;5053276;28;20211;-83
2021/08/13 02:26:08;;;;;;;10.60;7.37;;;;;;;18.65;70.07;101194.56;5045095;28;20218;-83
2021/08/13 02:28:35;;;;;;;7.07;6.30;;;;;;;18.54;70.53;101197.31;5054077;28;20212;-82
2021/08/13 02:31:02;;;;;;;8.47;7.03;;;;;;;18.49;70.92;101192.31;5052689;28;20228;-83
2021/08/13 02:33:29;;;;;;;8.33;7.00;;;;;;;18.46;71.03;101195.28;5052688;28;20207;-81
2021/08/13 02:36:04;;;;;;;9.77;7.40;;;;;;;18.45;71.17;101190.88;5050734;28;20304;-84
2021/08/13 02:38:34;;;;;;;8.40;7.60;;;;;;;18.41;71.26;101192.16;5050332;28;20209;-83
2021/08/13 02:41:04;;;;;;;9.27;8.30;;;;;;;18.38;71.46;101187.88;5049750;28;20210;-83
2021/08/13 02:43:36;;;;;;;8.73;7.00;;;;;;;18.36;71.46;101195.25;5061637;28;20675;-82
2021/08/13 02:46:05;;;;;;;7.57;6.77;;;;;;;18.35;71.75;101190.00;5053508;28;20228;-83
2021/08/13 02:48:35;;;;;;;7.97;7.00;;;;;;;18.35;71.72;101198.09;5054650;28;20206;-83
2021/08/13 02:51:03;;;;;;;7.97;7.17;;;;;;;18.33;71.58;101190.13;5056855;28;20220;-83
2021/08/13 02:53:31;;;;;;;7.33;6.60;;;;;;;18.31;71.23;101196.63;5055412;28;20201;-83
2021/08/13 02:56:02;;;;;;;7.53;6.60;;;;;;;18.30;71.02;101194.94;5057525;28;20221;-86
2021/08/13 02:58:36;;;;;;;7.17;6.47;;;;;;;18.29;70.88;101198.59;5054798;28;20607;-80
2021/08/13 03:01:03;;;;;;;7.63;6.90;;;;;;;18.25;70.76;101202.59;5054584;28;20220;-85
2021/08/13 03:03:31;;;;;;;7.40;6.70;;;;;;;18.24;70.51;101195.47;5060996;28;20296;-83
2021/08/13 03:05:59;;;;;;;7.33;6.47;;;;;;;18.22;70.47;101202.84;5056834;28;20228;-83
2021/08/13 03:08:26;;;;;;;9.17;6.03;;;;;;;18.21;70.40;101203.84;5056055;28;20300;-82
2021/08/13 03:10:53;;;;;;;9.10;7.07;;;;;;;18.21;70.53;101198.44;5059866;28;20224;-84
2021/08/13 03:13:22;;;;;;;10.07;7.33;;;;;;;18.18;70.75;101194.16;5057046;28;20561;-85
2021/08/13 03:15:51;;;;;;;10.87;7.40;;;;;;;18.13;70.65;101182.91;5054831;28;20237;-82
2021/08/13 03:18:19;;;;;;;9.57;7.10;;;;;;;18.06;70.57;101180.91;5055274;28;21601;-82
2021/08/13 03:20:46;;;;;;;8.00;7.20;;;;;;;18.01;70.90;101190.22;5053781;28;20202;-82
2021/08/13 03:23:12;;;;;;;10.67;7.80;;;;;;;17.96;71.03;101184.38;5056170;28;20211;-82
2021/08/13 03:25:40;;;;;;;8.80;7.70;;;;;;;17.94;71.29;101186.34;5058413;28;20239;-84
2021/08/13 03:28:08;;;;;;;8.63;7.13;;;;;;;17.90;71.21;101182.22;5065976;28;20208;-85
2021/08/13 03:30:39;;;;;;;8.73;7.93;;;;;;;17.86;71.36;101191.53;5055137;28;20643;-85
2021/08/13 03:33:08;;;;;;;9.80;7.63;;;;;;;17.84;71.69;101193.50;5064423;28;20264;-83
2021/08/13 03:35:35;;;;;;;9.67;8.67;;;;;;;17.82;71.96;101184.69;5057282;28;20237;-84
2021/08/13 03:38:01;;;;;;;9.57;8.13;;;;;;;17.78;71.86;101182.38;5066385;28;20207;-85
2021/08/13 03:40:28;;;;;;;10.87;9.23;;;;;;;17.72;72.14;101189.19;5062157;28;20733;-84
2021/08/13 03:42:54;;;;;;;9.00;8.10;;;;;;;17.66;72.09;101187.00;5061058;28;20207;-82
2021/08/13 03:45:21;;;;;;;10.87;8.03;;;;;;;17.62;72.43;101177.41;5062147;28;20265;-83
2021/08/13 03:47:48;;;;;;;11.37;8.53;;;;;;;17.58;72.47;101182.19;5059938;28;20213;-83
2021/08/13 03:50:16;;;;;;;9.57;8.50;;;;;;;17.55;72.88;101176.25;5059302;28;20629;-85
2021/08/13 03:52:43;;;;;;;9.83;8.47;;;;;;;17.54;72.77;101188.00;5064584;28;20662;-85
2021/08/13 03:55:12;;;;;;;9.20;8.03;;;;;;;17.54;72.97;101185.31;5055881;28;20228;-82
2021/08/13 03:57:39;;;;;;;9.03;7.73;;;;;;;17.54;73.22;101188.00;5057086;28;20208;-83
2021/08/13 04:00:07;;;;;;;10.67;8.80;;;;;;;17.56;73.12;101184.16;5056718;28;20195;-80
2021/08/13 04:02:33;;;;;;;9.13;8.13;;;;;;;17.59;73.29;101193.84;5056381;28;20210;-83
2021/08/13 04:05:00;;;;;;;9.53;7.13;;;;;;;17.61;73.30;101195.41;5055938;28;20304;-82
2021/08/13 04:07:28;;;;;;;11.80;8.60;;;;;;;17.63;73.58;101195.28;5056640;28;20218;-85
2021/08/13 04:09:54;;;;;;;9.77;8.87;;;;;;;17.64;73.51;101192.50;5051699;28;20250;-82
2021/08/13 04:12:21;;;;;;;10.33;8.67;;;;;;;17.67;73.61;101199.47;5060416;28;20198;-85
2021/08/13 04:14:48;;;;;;;9.37;8.43;;;;;;;17.68;73.57;101198.50;5049337;28;20322;-82
2021/08/13 04:17:14;;;;;;;11.40;8.83;;;;;;;17.69;73.64;101192.97;5048426;28;20669;-85
2021/08/13 04:19:41;;;;;;;9.70;8.70;;;;;;;17.72;73.52;101194.56;5056866;28;20212;-83
2021/08/13 04:22:08;;;;;;;11.33;8.97;;;;;;;17.71;73.54;101209.00;5050727;28;20205;-84
2021/08/13 04:24:37;;;;;;;15.17;8.93;;;;;;;17.68;73.55;101207.44;5052058;28;20241;-84
2021/08/13 04:27:04;;;;;;;8.90;8.03;;;;;;;17.67;73.65;101207.56;5053256;28;20236;-83
2021/08/13 04:29:31;;;;;;;10.33;8.53;;;;;;;17.65;73.62;101194.22;5059382;28;20215;-84
2021/08/13 04:31:58;;;;;;;8.97;7.90;;;;;;;17.67;73.65;101203.03;5055856;28;20205;-84
2021/08/13 04:34:24;;;;;;;9.43;8.50;;;;;;;17.67;73.73;101197.63;5055059;28;20253;-84
2021/08/13 04:36:51;;;;;;;9.17;8.23;;;;;;;17.67;73.59;101189.56;5054494;28;20208;-84
2021/08/13 04:39:17;;;;;;;8.77;7.90;;;;;;;17.67;73.65;101202.16;5057845;28;20207;-84
2021/08/13 04:41:45;;;;;;;9.13;8.20;;;;;;;17.65;73.63;101188.81;5052525;28;20222;-85
2021/08/13 04:44:11;;;;;;;12.23;8.67;;;;;;;17.66;73.52;101192.38;5057818;28;20232;-85
2021/08/13 04:46:38;;;;;;;10.30;7.87;;;;;;;17.65;73.51;101190.66;5054760;28;20213;-85
2021/08/13 04:49:04;;;;;;;8.70;7.90;;;;;;;17.66;73.57;101190.53;5057047;28;20599;-86
2021/08/13 04:51:31;;;;;;;10.30;8.53;;;;;;;17.66;73.41;101192.38;5057274;28;20235;-84
2021/08/13 04:53:58;;;;;;;10.00;8.60;;;;;;;17.68;73.42;101193.97;5058137;28;20658;-85
2021/08/13 04:56:24;;;;;;;9.50;8.27;;;;;;;17.69;73.54;101189.44;5055591;28;20213;-84
2021/08/13 04:58:52;;;;;;;9.33;8.33;;;;;;;17.71;73.44;101190.16;5053929;28;20200;-84
2021/08/13 05:01:19;;;;;;;9.53;8.57;;;;;;;17.71;73.34;101192.00;5063144;28;20205;-84
2021/08/13 05:03:45;;;;;;;12.60;8.33;;;;;;;17.69;73.47;101205.59;5056536;28;20216;-84
2021/08/13 05:06:12;;;;;;;10.43;8.00;;;;;;;17.69;73.54;101198.38;5057145;28;20320;-83
2021/08/13 05:08:39;;;;;;;8.80;7.90;;;;;;;17.67;73.59;101196.78;5054701;28;20212;-84
2021/08/13 05:11:05;;;;;;;9.97;8.70;;;;;;;17.68;73.73;101193.09;5055872;28;20220;-84
2021/08/13 05:13:32;;;;;;;9.07;8.27;;;;;;;17.69;73.87;101194.81;5054943;28;20215;-84
2021/08/13 05:16:00;;;;;;;10.20;9.10;;;;;;;17.68;74.02;101190.41;5064016;28;20289;-83
2021/08/13 05:18:26;;;;;;;13.47;9.70;;;;;;;17.67;74.33;101197.63;5061067;28;20213;-84
2021/08/13 05:20:54;;;;;;;10.33;8.90;;;;;;;17.69;74.57;101200.22;5062982;28;20212;-83
2021/08/13 05:23:21;;;;;;;9.27;8.37;;;;;;;17.74;74.73;101197.94;5057341;28;20263;-83
2021/08/13 05:25:47;;;;;;;10.77;9.30;;;;;;;17.77;74.68;101196.84;5052440;28;20232;-84
2021/08/13 05:28:14;;;;;;;9.87;8.83;;;;;;;17.83;74.48;101204.41;5057410;28;20641;-85
2021/08/13 05:30:40;;;;;;;9.80;8.90;;;;;;;17.88;75.05;101200.34;5059948;28;20230;-85
2021/08/13 05:33:08;;;;;;;9.57;8.57;;;;;;;17.93;74.86;101195.41;5054928;28;20205;-84
2021/08/13 05:35:37;;;;;;;12.20;9.13;;;;;;;17.98;74.96;101195.03;5055899;28;20228;-86
2021/08/13 05:38:13;;;;;;;9.73;8.67;;;;;;;18.04;75.04;101199.91;5062628;28;20216;-86
2021/08/13 05:40:39;;;;;;;9.87;8.70;;;;;;;18.11;75.14;101208.28;5056225;28;20205;-84
2021/08/13 05:43:06;;;;;;;9.43;8.63;;;;;;;18.18;75.51;101204.09;5049490;28;20300;-83
2021/08/13 05:45:33;;;;;;;9.50;8.50;;;;;;;18.28;75.75;101207.69;5050320;28;20239;-83
2021/08/13 05:47:59;;;;;;;11.03;8.27;;;;;;;18.40;75.89;101201.25;5060145;28;20209;-83
2021/08/13 05:50:27;;;;;;;9.60;8.70;;;;;;;18.52;75.92;101193.91;5064903;28;20593;-84
2021/08/13 05:52:55;;;;;;;8.87;7.93;;;;;;;18.64;75.94;101203.63;5049656;28;20203;-83
2021/08/13 05:55:22;;;;;;;9.07;8.17;;;;;;;18.76;75.76;101201.72;5063097;28;20265;-84
2021/08/13 05:57:48;;;;;;;8.77;7.87;;;;;;;18.87;75.43;101204.31;5064067;28;20225;-83
2021/08/13 06:00:15;;;;;;;9.20;8.30;;;;;;;18.99;75.39;101205.88;5054258;28;20207;-83
2021/08/13 06:02:51;;;;;;;10.27;8.70;;;;;;;19.11;74.99;101210.22;5055938;28;20219;-84
2021/08/13 06:05:18;;;;;;;8.87;8.13;;;;;;;19.23;74.87;101210.94;5053741;28;20224;-84
2021/08/13 06:07:46;;;;;;;9.87;8.33;;;;;;;19.34;74.41;101208.97;5054795;28;20216;-83
2021/08/13 06:10:12;;;;;;;9.07;7.57;;;;;;;19.44;73.88;101208.97;5061920;28;20210;-83
2021/08/13 06:12:39;;;;;;;11.80;7.93;;;;;;;19.56;73.55;101207.88;5059156;28;20204;-84
2021/08/13 06:15:06;;;;;;;9.33;8.03;;;;;;;19.68;72.99;101208.59;5060223;28;20233;-84
2021/08/13 06:17:33;;;;;;;8.73;7.47;;;;;;;19.82;73.04;101207.31;5056183;28;20213;-84
2021/08/13 06:19:59;;;;;;;8.40;7.40;;;;;;;19.95;72.78;101208.72;5060342;28;20227;-83
2021/08/13 06:22:26;;;;;;;8.87;7.80;;;;;;;20.10;72.41;101203.72;5056882;28;20211;-84
2021/08/13 06:24:54;;;;;;;8.47;6.97;;;;;;;20.27;71.92;101202.09;5057491;28;20312;-84
2021/08/13 06:27:20;;;;;;;10.27;7.57;;;;;;;20.41;71.49;101207.97;5066102;28;20210;-85
2021/08/13 06:29:47;;;;;;;8.67;7.47;;;;;;;20.57;70.99;101210.03;5063238;28;20214;-85
2021/08/13 06:32:13;;;;;;;12.40;7.27;;;;;;;20.67;70.49;101205.44;5057796;28;20227;-82
2021/08/13 06:34:40;;;;;;;7.87;6.83;;;;;;;20.79;70.07;101200.66;5053584;28;20239;-84
2021/08/13 06:37:06;;;;;;;10.57;7.50;;;;;;;20.93;69.60;101205.59;5049187;28;20210;-84
2021/08/13 06:39:33;;;;;;;8.30;7.50;;;;;;;21.05;69.29;101201.69;5054739;28;20208;-84
2021/08/13 06:42:01;;;;;;;8.40;7.60;;;;;;;21.17;68.80;101199.59;5054774;28;20196;-86
2021/08/13 06:44:27;;;;;;;8.47;7.57;;;;;;;21.28;68.19;101193.16;5054604;28;20616;-84
2021/08/13 06:46:54;;;;;;;7.80;6.87;;;;;;;21.40;68.22;101195.50;5054293;28;20255;-84
2021/08/13 06:49:20;;;;;;;9.43;6.80;;;;;;;21.55;67.69;101200.38;5062634;28;20200;-84
2021/08/13 06:51:47;;;;;;;8.60;7.22;;;;;;;21.68;67.36;101196.25;5057283;28;20231;-84
2021/08/13 06:54:14;;;;;;;9.80;7.50;;;;;;;21.82;66.84;101192.16;5056209;28;20220;-85
2021/08/13 06:56:40;;;;;;;8.55;7.13;;;;;;;21.96;66.38;101188.88;5054675;28;20213;-85
2021/08/13 06:59:08;;;;;;;7.03;6.35;;;;;;;22.10;66.16;101196.47;5057079;28;20197;-85
2021/08/13 07:01:35;;;;;;;8.73;6.97;;;;;;;22.29;65.85;101195.41;5064280;28;20291;-85
2021/08/13 07:04:01;;;;;;;8.07;7.18;;;;;;;22.47;65.39;101203.50;5059829;28;20197;-84
2021/08/13 07:06:28;;;;;;;8.88;7.95;;;;;;;22.62;65.22;101199.16;5055824;28;20201;-84
2021/08/13 07:08:55;;;;;;;8.35;7.53;;;;;;;22.75;64.58;101194.13;5057122;28;20563;-84
2021/08/13 07:11:21;;;;;;;7.72;6.80;;;;;;;22.83;63.63;101187.94;5056445;28;20225;-84
2021/08/13 07:13:48;;;;;;;8.93;7.05;;;;;;;22.89;63.47;101194.59;5051201;28;20205;-85
2021/08/13 07:16:16;;;;;;;8.20;6.97;;;;;;;22.96;63.29;101201.03;5061491;28;20586;-84
2021/08/13 07:18:42;;;;;;;8.23;6.97;;;;;;;23.06;63.05;101199.91;5059864;28;20212;-85
2021/08/13 07:21:09;;;;;;;8.75;6.35;;;;;;;23.20;62.17;101201.13;5055576;28;20197;-85
2021/08/13 07:23:35;;;;;;;6.90;6.30;;;;;;;23.33;61.40;101201.50;5048198;28;20209;-85
2021/08/13 07:26:02;;;;;;;7.60;6.60;;;;;;;23.47;61.11;101198.13;5050779;28;20220;-85
2021/08/13 07:28:28;;;;;;;7.43;6.43;;;;;;;23.56;59.45;101199.03;5044617;28;20212;-85
2021/08/13 07:30:55;;;;;;;8.85;7.95;;;;;;;23.60;58.64;101203.13;5047550;28;20224;-84
2021/08/13 07:33:23;;;;;;;7.75;6.95;;;;;;;23.65;58.25;101197.16;5049740;28;20205;-85
2021/08/13 07:35:49;;;;;;;8.77;6.43;;;;;;;23.73;58.07;101205.34;5052484;28;20271;-84
2021/08/13 07:38:16;;;;;;;8.05;7.28;;;;;;;23.83;57.63;101198.69;5047141;28;20210;-85
2021/08/13 07:40:42;;;;;;;7.50;6.50;;;;;;;23.94;57.41;101197.53;5048586;28;20333;-83
2021/08/13 07:43:09;;;;;;;9.80;7.45;;;;;;;24.06;56.90;101204.31;5048608;28;20208;-84
2021/08/13 07:45:36;;;;;;;7.28;6.57;;;;;;;24.19;56.90;101204.63;5045191;28;20243;-84
2021/08/13 07:48:02;;;;;;;8.40;6.57;;;;;;;24.36;56.88;101200.06;5047180;28;20652;-84
2021/08/13 07:50:30;;;;;;;7.07;6.40;;;;;;;24.55;56.07;101199.66;5045752;28;20200;-83
2021/08/13 07:52:57;;;;;;;8.60;6.47;;;;;;;24.74;55.21;101197.53;5045488;28;20281;-85
2021/08/13 07:55:23;;;;;;;7.20;6.40;;;;;;;24.87;54.36;101185.09;5047264;28;20440;-85
2021/08/13 07:57:50;;;;;;;7.43;5.95;;;;;;;25.02;53.80;101190.66;5042656;28;20205;-84
2021/08/13 08:00:25;;;;;;;6.63;6.00;;;;;;;25.17;53.42;101205.22;5047942;28;20215;-85
2021/08/13 08:02:52;;;;;;;7.05;6.07;;;;;;;25.35;52.89;101206.81;5048502;28;20200;-85
2021/08/13 08:05:24;;;;;;;8.95;6.70;;;;;;;25.53;52.44;101202.78;5044718;28;20321;-84
2021/08/13 08:08:12;;;;;;;6.97;5.50;;;;;;;25.72;52.04;101203.38;5054932;28;20203;-83
2021/08/13 08:10:45;;;;;;;6.97;5.80;;;;;;;25.85;50.48;101201.72;5048298;28;20261;-84
2021/08/13 08:13:12;;;;;;;5.97;5.38;;;;;;;26.01;50.05;101205.34;5052310;28;20229;-85
2021/08/13 08:15:41;;;;;;;7.13;5.95;;;;;;;26.15;48.83;101204.53;5045449;28;20225;-85
2021/08/13 08:18:09;;;;;;;6.45;5.85;;;;;;;26.26;47.92;101210.41;5050757;28;20216;-85
2021/08/13 08:20:36;;;;;;;5.68;5.13;;;;;;;26.39;47.31;101212.50;5049056;28;20259;-84
2021/08/13 08:23:03;;;;;;;6.30;5.70;;;;;;;26.53;46.93;101211.66;5046392;28;20550;-85
2021/08/13 08:25:37;;;;;;;6.45;5.72;;;;;;;26.66;46.01;101215.66;5044689;28;20316;-84
2021/08/13 08:28:04;;;;;;;5.90;5.40;;;;;;;26.80;46.14;101214.78;5044274;28;20289;-85
2021/08/13 08:30:30;;;;;;;5.70;5.20;;;;;;;26.95;45.77;101232.06;5049875;28;20288;-85
2021/08/13 08:36:35;;;;;;;6.68;5.60;;;;;;;27.19;44.24;101231.75;4932273;28;20247;-85
2021/08/13 08:39:02;;;;;;;6.32;5.72;;;;;;;27.28;43.91;101227.00;5001830;28;20210;-86
2021/08/13 08:41:30;;;;;;;6.80;6.10;;;;;;;27.38;43.50;101223.97;5023764;28;20201;-86
2021/08/13 08:43:57;;;;;;;6.80;5.60;;;;;;;27.47;42.73;101218.19;5047058;28;20196;-83
2021/08/13 08:46:24;;;;;;;6.88;5.63;;;;;;;27.58;42.22;101222.34;5045524;28;20296;-86
2021/08/13 08:48:53;;;;;;;6.10;5.50;;;;;;;27.68;41.62;101214.66;5048450;28;20762;-86
2021/08/13 08:51:20;;;;;;;7.45;5.55;;;;;;;27.77;41.08;101207.16;5043005;28;20233;-85
2021/08/13 08:53:50;;;;;;;6.28;5.20;;;;;;;27.87;41.31;101211.25;5050181;28;20197;-83
2021/08/13 08:56:18;;;;;;;5.85;5.35;;;;;;;27.98;41.47;101207.13;5043120;28;20707;-87
2021/08/13 08:58:47;;;;;;;5.82;4.57;;;;;;;28.11;41.52;101203.69;5045055;28;20206;-86
2021/08/13 09:01:15;;;;;;;6.30;4.97;;;;;;;28.19;41.12;101198.91;5048582;28;20237;-86
2021/08/13 09:03:42;;;;;;;6.45;5.40;;;;;;;28.25;40.84;101203.59;5042157;28;20205;-85
2021/08/13 09:06:09;;;;;;;6.82;5.53;;;;;;;28.36;40.84;101195.88;5041805;28;20272;-83
2021/08/13 09:08:36;;;;;;;5.78;5.20;;;;;;;28.48;40.72;101194.28;5047673;28;20657;-85
2021/08/13 09:11:03;;;;;;;5.72;5.22;;;;;;;28.62;41.25;101196.06;5047636;28;20232;-86
2021/08/13 09:13:29;;;;;;;6.15;5.43;;;;;;;28.69;40.46;101195.03;5046407;28;20678;-86
2021/08/13 09:16:10;;;;;;;5.65;5.15;;;;;;;28.75;41.46;101190.63;5045663;28;20230;-86
2021/08/13 09:18:37;;;;;;;6.00;5.22;;;;;;;28.84;41.73;101191.34;5048107;28;20205;-85
2021/08/13 09:21:04;;;;;;;7.20;5.65;;;;;;;28.98;41.37;101188.47;5052193;28;20197;-86
2021/08/13 09:23:34;;;;;;;6.80;5.88;;;;;;;29.08;41.18;101187.22;5047685;28;20197;-86
2021/08/13 09:26:02;;;;;;;6.40;5.60;;;;;;;29.12;40.80;101196.75;5045782;28;20221;-86
2021/08/13 09:28:40;;;;;;;6.00;5.40;;;;;;;29.20;40.79;101189.16;5040859;28;20228;-84
2021/08/13 09:31:16;;;;;;;7.47;5.57;;;;;;;29.28;41.43;101185.41;5050196;28;20252;-86
2021/08/13 09:33:48;;;;;;;7.05;5.28;;;;;;;29.32;40.58;101182.03;5048263;28;20201;-86
2021/08/13 09:36:15;;;;;;;6.90;5.22;;;;;;;29.34;41.05;101182.69;5045779;28;20245;-86
2021/08/13 09:38:43;;;;;;;6.85;5.95;;;;;;;29.41;40.60;101177.22;5048529;28;20211;-86
2021/08/13 09:41:14;;;;;;;7.75;5.47;;;;;;;29.47;40.67;101178.31;5044858;28;20237;-86
2021/08/13 09:43:54;;;;;;;6.18;5.63;;;;;;;29.57;40.97;101167.75;5047040;28;20242;-86
2021/08/13 09:46:23;;;;;;;6.72;5.47;;;;;;;29.62;40.94;101179.81;5046139;28;20206;-84
2021/08/13 09:48:50;;;;;;;6.43;4.95;;;;;;;29.65;40.11;101184.03;5048614;28;20288;-86
2021/08/13 09:51:30;;;;;;;8.68;5.53;;;;;;;29.69;40.10;101174.31;5046103;28;20212;-85
2021/08/13 09:53:58;;;;;;;5.97;5.30;;;;;;;29.73;39.96;101170.13;5045541;28;20205;-86
2021/08/13 09:56:28;;;;;;;6.38;5.78;;;;;;;29.83;39.48;101166.94;5041392;28;20637;-86
2021/08/13 09:59:07;;;;;;;6.85;4.80;;;;;;;29.98;39.19;101167.59;5048825;28;20209;-86
2021/08/13 10:01:39;;;;;;;7.05;4.57;;;;;;;29.96;38.75;101175.16;5044490;28;20193;-87
2021/08/13 10:04:07;;;;;;;6.57;5.38;;;;;;;30.00;38.73;101191.06;5042706;28;20208;-86
2021/08/13 10:06:38;;;;;;;5.20;4.80;;;;;;;30.11;38.20;101180.47;5044817;28;20225;-86
2021/08/13 10:09:05;;;;;;;6.72;5.10;;;;;;;30.13;38.28;101181.97;5047136;28;20746;-86
2021/08/13 10:11:36;;;;;;;6.65;5.10;;;;;;;30.10;38.45;101174.13;5050372;28;20666;-86
2021/08/13 10:14:04;;;;;;;5.13;4.63;;;;;;;30.09;37.67;101171.63;5046109;28;20553;-86
2021/08/13 10:16:31;;;;;;;6.35;5.45;;;;;;;30.08;37.40;101170.78;5041892;28;20198;-86
2021/08/13 10:18:59;;;;;;;9.20;5.97;;;;;;;30.12;37.72;101176.66;5041372;28;20220;-86
2021/08/13 10:21:28;;;;;;;7.40;6.25;;;;;;;30.16;37.56;101173.28;5051058;28;20216;-86
2021/08/13 10:23:56;;;;;;;6.20;5.60;;;;;;;30.24;37.33;101161.25;5048022;28;20201;-86
2021/08/13 10:26:24;;;;;;;6.95;6.25;;;;;;;30.33;37.10;101177.28;5049899;28;20205;-86
2021/08/13 10:28:52;;;;;;;7.78;6.03;;;;;;;30.41;37.15;101172.63;5048392;28;20386;-86
2021/08/13 10:31:21;;;;;;;6.03;5.53;;;;;;;30.51;36.97;101160.13;5051503;28;20285;-86
2021/08/13 10:33:49;;;;;;;7.95;5.70;;;;;;;30.61;36.87;101166.06;5043207;28;20202;-87
2021/08/13 10:36:19;;;;;;;6.50;5.75;;;;;;;30.70;36.83;101167.50;5041158;28;20218;-86
2021/08/13 10:38:49;;;;;;;6.05;5.45;;;;;;;30.73;37.52;101160.72;5041151;28;20218;-87
2021/08/13 10:41:22;;;;;;;7.28;6.22;;;;;;;30.77;37.43;101162.00;5041462;28;20205;-86
2021/08/13 10:43:52;;;;;;;6.88;6.20;;;;;;;30.82;37.21;101161.31;5045467;28;20285;-87
2021/08/13 10:46:20;;;;;;;8.32;6.80;;;;;;;30.86;37.32;101165.31;5043604;28;20316;-86
2021/08/13 10:48:51;;;;;;;6.32;5.72;;;;;;;30.85;37.29;101174.63;5046887;28;20217;-87
2021/08/13 10:51:27;;;;;;;7.00;5.72;;;;;;;30.82;37.47;101180.56;5048801;28;20201;-86
2021/08/13 10:54:05;;;;;;;6.03;5.43;;;;;;;30.81;37.65;101160.50;5044318;28;20207;-86
2021/08/13 10:56:39;;;;;;;6.00;5.40;;;;;;;30.82;37.38;101155.81;5039096;28;20213;-86
2021/08/13 10:59:06;;;;;;;6.60;6.00;;;;;;;30.84;36.74;101150.94;5042368;28;20200;-87
2021/08/13 11:01:32;;;;;;;6.47;5.88;;;;;;;30.88;36.97;101147.53;5045048;28;20267;-87
2021/08/13 11:04:13;;;;;;;7.63;5.95;;;;;;;31.00;37.04;101147.69;5037829;28;20611;-86
2021/08/13 11:06:46;;;;;;;6.28;5.10;;;;;;;31.07;36.56;101146.59;5045075;28;20233;-88
2021/08/13 11:09:31;;;;;;;9.13;6.10;;;;;;;31.15;36.67;101155.72;5046672;28;20240;-87
2021/08/13 11:12:06;;;;;;;6.13;5.53;;;;;;;31.21;36.46;101147.41;5046348;28;20241;-86
2021/08/13 11:14:35;;;;;;;6.78;6.07;;;;;;;31.23;36.22;101148.03;5045403;28;20843;-87
2021/08/13 11:17:03;;;;;;;8.13;6.10;;;;;;;31.33;36.45;101147.56;5044235;28;20198;-87
2021/08/13 11:19:56;;;;;;;8.00;5.43;;;;;;;31.40;35.97;101140.09;5043176;28;20255;-87
2021/08/13 11:22:34;;;;;;;6.55;5.35;;;;;;;31.44;35.82;101138.59;5041434;28;20202;-87
2021/08/13 11:25:02;;;;;;;6.30;5.72;;;;;;;31.50;35.19;101145.13;5042071;28;20229;-87
2021/08/13 11:27:28;;;;;;;5.93;5.32;;;;;;;31.50;35.58;101136.88;5047368;28;20213;-86
2021/08/13 11:29:55;;;;;;;8.05;6.10;;;;;;;31.48;35.44;101133.47;5040873;28;20203;-86
2021/08/13 11:32:28;;;;;;;6.78;6.15;;;;;;;31.52;35.80;101119.06;5043241;28;20236;-87
2021/08/13 11:34:58;;;;;;;6.88;6.15;;;;;;;31.59;35.06;101130.84;5040593;28;20240;-86